Time;durP1;ratioP1;P1;durP2;ratioP2;P2;SDS_P1;SDS_P2;PMS_P1;PMS_P2;Temp;Humidity;BMP_temperature;BMP_pressure;BME280_temperature;BME280_humidity;BME280_pressure;Samples;Min_cycle;Max_cycle;Signal;HPM_P1;HPM_P2
2021/11/01 00:00:24;;;;;;;15.87;9.63;;;;;;;;;;777286;180;919550;-67
2021/11/01 00:02:49;;;;;;;13.40;9.47;;;;;;;;;;766310;180;920075;-66
2021/11/01 00:05:15;;;;;;;14.90;9.27;;;;;;;;;;768938;180;928528;-66
2021/11/01 00:07:41;;;;;;;13.23;8.53;;;;;;;;;;768681;179;919452;-67
2021/11/01 00:10:07;;;;;;;12.80;9.13;;;;;;;;;;776433;179;919492;-67
2021/11/01 00:12:33;;;;;;;14.20;9.67;;;;;;;;;;763379;178;919008;-68
2021/11/01 00:14:59;;;;;;;13.70;10.32;;;;;;;;;;769876;179;918895;-66
2021/11/01 00:17:25;;;;;;;16.00;9.50;;;;;;;;;;777543;179;918346;-68
2021/11/01 00:19:50;;;;;;;15.65;10.13;;;;;;;;;;768361;180;919437;-67
2021/11/01 00:22:16;;;;;;;13.17;9.77;;;;;;;;;;769086;180;918885;-66
2021/11/01 00:24:42;;;;;;;17.43;10.07;;;;;;;;;;772746;181;918783;-67
2021/11/01 00:27:08;;;;;;;14.30;9.57;;;;;;;;;;766691;180;919589;-67
2021/11/01 00:29:34;;;;;;;13.07;9.23;;;;;;;;;;765756;180;918951;-68
2021/11/01 00:32:00;;;;;;;15.60;8.90;;;;;;;;;;774441;180;918804;-67
2021/11/01 00:34:25;;;;;;;12.00;10.00;;;;;;;;;;768630;179;921592;-67
2021/11/01 00:36:53;;;;;;;11.47;8.73;;;;;;;;;;757800;180;2148209;-67
2021/11/01 00:39:17;;;;;;;14.90;8.47;;;;;;;;;;762334;180;918510;-67
2021/11/01 00:41:43;;;;;;;16.60;10.37;;;;;;;;;;775762;181;918866;-66
2021/11/01 00:44:09;;;;;;;14.50;10.70;;;;;;;;;;770130;181;918388;-67
2021/11/01 00:46:35;;;;;;;17.90;10.17;;;;;;;;;;770856;180;919511;-66
2021/11/01 00:49:01;;;;;;;15.27;9.20;;;;;;;;;;771333;180;918689;-67
2021/11/01 00:51:27;;;;;;;14.90;9.27;;;;;;;;;;769638;180;918238;-68
2021/11/01 00:53:52;;;;;;;13.97;10.13;;;;;;;;;;766219;180;917906;-66
2021/11/01 00:56:18;;;;;;;21.33;11.03;;;;;;;;;;778509;180;918339;-67
2021/11/01 00:58:44;;;;;;;14.37;10.80;;;;;;;;;;770475;180;919374;-68
2021/11/01 01:01:10;;;;;;;14.63;10.15;;;;;;;;;;769477;180;919507;-66
2021/11/01 01:03:36;;;;;;;17.97;9.97;;;;;;;;;;765199;181;919011;-67
2021/11/01 01:06:03;;;;;;;16.10;10.53;;;;;;;;;;770496;181;921044;-66
2021/11/01 01:08:27;;;;;;;16.30;11.73;;;;;;;;;;762932;180;918727;-68
2021/11/01 01:10:53;;;;;;;21.67;10.83;;;;;;;;;;771126;179;912595;-66
2021/11/01 01:13:22;;;;;;;15.93;10.37;;;;;;;;;;778264;179;912203;-66
2021/11/01 01:15:58;;;;;;;15.17;10.40;;;;;;;;;;773807;180;912001;-66
2021/11/01 01:18:21;;;;;;;14.80;10.40;;;;;;;;;;770531;180;918672;-66
2021/11/01 01:20:43;;;;;;;18.00;11.27;;;;;;;;;;774615;179;918722;-66
2021/11/01 01:23:09;;;;;;;19.87;12.47;;;;;;;;;;767467;180;917731;-66
2021/11/01 01:25:45;;;;;;;20.10;11.00;;;;;;;;;;771379;180;918971;-66
2021/11/01 01:28:11;;;;;;;18.00;12.00;;;;;;;;;;763794;181;919002;-66
2021/11/01 01:30:37;;;;;;;23.87;14.77;;;;;;;;;;769334;180;919893;-67
2021/11/01 01:33:03;;;;;;;22.97;15.47;;;;;;;;;;767445;180;918899;-65
2021/11/01 01:35:30;;;;;;;22.53;13.50;;;;;;;;;;764403;179;920949;-66
2021/11/01 01:37:54;;;;;;;20.83;15.50;;;;;;;;;;766555;181;919776;-65
2021/11/01 01:40:20;;;;;;;25.77;15.63;;;;;;;;;;775155;180;918673;-66
2021/11/01 01:42:46;;;;;;;23.20;15.47;;;;;;;;;;773825;180;918440;-67
2021/11/01 01:45:12;;;;;;;20.08;13.65;;;;;;;;;;768343;180;1226994;-65
2021/11/01 01:47:40;;;;;;;21.73;14.67;;;;;;;;;;774940;180;919258;-65
2021/11/01 01:50:04;;;;;;;21.90;14.10;;;;;;;;;;771841;180;922225;-66
2021/11/01 01:52:30;;;;;;;19.47;13.10;;;;;;;;;;763892;181;920289;-67
2021/11/01 01:54:56;;;;;;;25.73;14.80;;;;;;;;;;778496;180;926518;-66
2021/11/01 01:57:22;;;;;;;23.37;13.43;;;;;;;;;;762767;180;919636;-65
2021/11/01 01:59:48;;;;;;;21.13;13.83;;;;;;;;;;766834;180;918999;-66
2021/11/01 02:02:13;;;;;;;22.60;14.10;;;;;;;;;;765213;180;918787;-65
2021/11/01 02:04:39;;;;;;;18.83;13.10;;;;;;;;;;769692;180;920526;-66
2021/11/01 02:07:08;;;;;;;24.13;14.17;;;;;;;;;;762395;181;921364;-66
2021/11/01 02:09:48;;;;;;;30.73;16.17;;;;;;;;;;776629;180;631818;-66
2021/11/01 02:12:13;;;;;;;21.37;13.93;;;;;;;;;;773062;180;915559;-65
2021/11/01 02:14:49;;;;;;;20.13;13.53;;;;;;;;;;775440;180;919312;-65
2021/11/01 02:17:15;;;;;;;22.40;14.02;;;;;;;;;;775555;180;918601;-66
2021/11/01 02:19:48;;;;;;;19.80;14.67;;;;;;;;;;764148;181;919097;-66
2021/11/01 02:22:17;;;;;;;25.50;15.33;;;;;;;;;;770626;179;1150419;-66
2021/11/01 02:24:59;;;;;;;23.57;13.50;;;;;;;;;;769788;180;918975;-66
2021/11/01 02:27:25;;;;;;;20.30;12.27;;;;;;;;;;758190;181;918854;-65
2021/11/01 02:29:50;;;;;;;20.33;15.13;;;;;;;;;;770704;180;918693;-66
2021/11/01 02:32:16;;;;;;;21.50;13.80;;;;;;;;;;770124;181;919285;-66
2021/11/01 02:34:42;;;;;;;21.75;14.82;;;;;;;;;;764546;180;918819;-65
2021/11/01 02:37:08;;;;;;;25.53;14.13;;;;;;;;;;774974;180;919183;-66
2021/11/01 02:39:49;;;;;;;21.10;13.20;;;;;;;;;;767430;180;918886;-66
2021/11/01 02:42:15;;;;;;;23.85;13.38;;;;;;;;;;764430;180;919116;-65
2021/11/01 02:44:47;;;;;;;18.90;13.30;;;;;;;;;;765183;181;918851;-66
2021/11/01 02:47:13;;;;;;;18.43;13.63;;;;;;;;;;771143;181;918794;-65
2021/11/01 02:49:39;;;;;;;18.90;13.70;;;;;;;;;;760214;181;918681;-66
2021/11/01 02:52:05;;;;;;;21.93;15.43;;;;;;;;;;766534;180;918253;-65
2021/11/01 02:54:31;;;;;;;20.60;13.90;;;;;;;;;;768951;179;917946;-66
2021/11/01 02:56:59;;;;;;;21.83;14.90;;;;;;;;;;774904;181;919740;-66
2021/11/01 02:59:22;;;;;;;22.10;14.57;;;;;;;;;;770385;180;920273;-66
2021/11/01 03:01:48;;;;;;;23.12;14.32;;;;;;;;;;765206;181;914882;-65
2021/11/01 03:04:14;;;;;;;17.63;12.93;;;;;;;;;;770766;180;913860;-65
2021/11/01 03:06:40;;;;;;;21.13;13.60;;;;;;;;;;771176;180;916287;-65
2021/11/01 03:09:06;;;;;;;22.43;15.27;;;;;;;;;;767879;180;919467;-65
2021/11/01 03:11:32;;;;;;;22.00;14.33;;;;;;;;;;774413;180;918845;-65
2021/11/01 03:13:57;;;;;;;19.92;15.15;;;;;;;;;;763293;180;919471;-65
2021/11/01 03:16:23;;;;;;;21.67;14.70;;;;;;;;;;764977;182;919363;-65
2021/11/01 03:18:58;;;;;;;23.87;14.00;;;;;;;;;;767592;180;918537;-65
2021/11/01 03:21:25;;;;;;;20.57;14.30;;;;;;;;;;770795;180;918453;-65
2021/11/01 03:23:50;;;;;;;21.00;14.63;;;;;;;;;;770353;179;919558;-65
2021/11/01 03:26:17;;;;;;;19.10;14.00;;;;;;;;;;766278;181;919144;-65
2021/11/01 03:28:43;;;;;;;22.50;14.37;;;;;;;;;;766915;180;918923;-65
2021/11/01 03:31:09;;;;;;;21.03;14.73;;;;;;;;;;770924;181;919194;-66
2021/11/01 03:33:38;;;;;;;19.00;14.10;;;;;;;;;;772909;179;919942;-65
2021/11/01 03:36:03;;;;;;;23.10;17.00;;;;;;;;;;769797;180;919028;-65
2021/11/01 03:38:29;;;;;;;26.85;14.98;;;;;;;;;;775907;179;918887;-65
2021/11/01 03:40:54;;;;;;;21.47;15.80;;;;;;;;;;773825;180;918199;-65
2021/11/01 03:43:29;;;;;;;23.53;14.37;;;;;;;;;;770370;181;919426;-65
2021/11/01 03:45:53;;;;;;;23.80;17.10;;;;;;;;;;767142;180;919632;-65
2021/11/01 03:48:20;;;;;;;25.47;15.87;;;;;;;;;;762219;182;919797;-65
2021/11/01 03:50:47;;;;;;;27.03;16.70;;;;;;;;;;759430;183;919382;-65
2021/11/01 03:53:10;;;;;;;27.05;17.30;;;;;;;;;;753184;183;918671;-65
2021/11/01 03:55:36;;;;;;;26.20;17.23;;;;;;;;;;777093;179;919478;-64
2021/11/01 03:58:02;;;;;;;29.43;17.87;;;;;;;;;;768579;180;918657;-65
2021/11/01 04:00:28;;;;;;;28.70;18.70;;;;;;;;;;770211;180;919246;-65
2021/11/01 04:02:54;;;;;;;28.07;16.83;;;;;;;;;;774273;180;936700;-65
2021/11/01 04:05:20;;;;;;;23.40;16.47;;;;;;;;;;769192;180;919308;-65
2021/11/01 04:07:45;;;;;;;27.20;18.23;;;;;;;;;;769549;180;919525;-65
2021/11/01 04:10:11;;;;;;;27.27;18.60;;;;;;;;;;765546;180;920699;-65
2021/11/01 04:12:37;;;;;;;24.20;17.37;;;;;;;;;;764982;181;928182;-64
2021/11/01 04:15:10;;;;;;;29.93;18.03;;;;;;;;;;762751;180;919717;-65
2021/11/01 04:17:39;;;;;;;33.57;16.60;;;;;;;;;;771609;180;918883;-65
2021/11/01 04:20:11;;;;;;;23.33;16.60;;;;;;;;;;777957;180;918471;-64
2021/11/01 04:22:31;;;;;;;27.53;17.47;;;;;;;;;;769461;180;919288;-64
2021/11/01 04:24:55;;;;;;;33.47;16.37;;;;;;;;;;762955;180;919038;-65
2021/11/01 04:27:21;;;;;;;25.03;16.17;;;;;;;;;;765982;180;1021863;-64
2021/11/01 04:29:47;;;;;;;27.93;19.43;;;;;;;;;;774362;180;919125;-64
2021/11/01 04:32:22;;;;;;;27.55;16.62;;;;;;;;;;769146;180;919639;-65
2021/11/01 04:34:43;;;;;;;22.70;15.80;;;;;;;;;;770043;180;918137;-67
2021/11/01 04:37:05;;;;;;;25.52;15.20;;;;;;;;;;775885;180;919538;-65
2021/11/01 04:39:42;;;;;;;26.20;18.50;;;;;;;;;;770427;180;922137;-65
2021/11/01 04:45:08;;;;;;;27.20;16.07;;;;;;;;;;764978;180;1124228;-65
2021/11/01 04:54:41;;;;;;;23.10;15.93;;;;;;;;;;765143;180;918949;-65
2021/11/01 04:57:06;;;;;;;24.43;16.20;;;;;;;;;;765700;179;938893;-65
2021/11/01 04:59:33;;;;;;;23.33;16.37;;;;;;;;;;773774;180;918631;-65
2021/11/01 05:01:58;;;;;;;23.70;15.57;;;;;;;;;;773809;180;918965;-64
2021/11/01 05:04:27;;;;;;;19.40;15.00;;;;;;;;;;774921;180;924846;-65
2021/11/01 05:06:52;;;;;;;26.33;15.20;;;;;;;;;;773924;181;625371;-66
2021/11/01 05:09:21;;;;;;;24.53;15.67;;;;;;;;;;771866;180;618629;-64
2021/11/01 05:17:19;;;;;;;23.30;14.50;;;;;;;;;;753280;186;686315;-65
2021/11/01 05:19:39;;;;;;;19.23;14.13;;;;;;;;;;754776;183;1634998;-64
2021/11/01 05:22:10;;;;;;;22.57;15.90;;;;;;;;;;761055;184;623410;-63
2021/11/01 05:24:35;;;;;;;29.93;17.80;;;;;;;;;;761608;183;635141;-66
2021/11/01 05:27:10;;;;;;;20.37;14.70;;;;;;;;;;739765;188;619078;-66
2021/11/01 05:29:20;;;;;;;25.00;16.43;;;;;;;;;;754929;184;626560;-65
2021/11/01 05:31:55;;;;;;;23.80;16.80;;;;;;;;;;742187;187;916450;-65
2021/11/01 05:34:17;;;;;;;27.87;17.62;;;;;;;;;;760521;180;915472;-65
2021/11/01 05:36:39;;;;;;;22.90;16.40;;;;;;;;;;776233;180;919095;-64
2021/11/01 05:39:05;;;;;;;24.40;15.87;;;;;;;;;;766515;182;918723;-64
2021/11/01 05:41:30;;;;;;;22.67;14.50;;;;;;;;;;765214;180;919274;-66
2021/11/01 05:43:56;;;;;;;26.83;16.70;;;;;;;;;;766359;180;919006;-64
2021/11/01 05:46:23;;;;;;;21.10;15.30;;;;;;;;;;764378;183;918925;-65
2021/11/01 05:48:52;;;;;;;22.50;14.87;;;;;;;;;;774502;180;634549;-66
2021/11/01 05:51:17;;;;;;;21.40;15.63;;;;;;;;;;768361;180;920106;-64
2021/11/01 05:53:44;;;;;;;21.93;15.63;;;;;;;;;;773956;179;626372;-65
2021/11/01 05:59:04;;;;;;;26.70;16.33;;;;;;;;;;769653;180;920168;-65
2021/11/01 06:04:04;;;;;;;22.33;15.00;;;;;;;;;;765237;179;919210;-65
2021/11/01 06:06:44;;;;;;;25.83;13.80;;;;;;;;;;774460;180;918968;-64
2021/11/01 06:09:19;;;;;;;23.43;17.77;;;;;;;;;;768607;183;967897;-65
2021/11/01 06:14:07;;;;;;;22.30;16.03;;;;;;;;;;766138;180;919303;-65
2021/11/01 06:16:33;;;;;;;26.75;16.73;;;;;;;;;;771508;180;914771;-65
2021/11/01 06:18:59;;;;;;;24.27;16.10;;;;;;;;;;777071;180;915937;-65
2021/11/01 06:21:24;;;;;;;19.40;14.20;;;;;;;;;;768222;181;915919;-64
2021/11/01 06:23:52;;;;;;;25.27;18.20;;;;;;;;;;770742;180;915632;-65
2021/11/01 06:26:18;;;;;;;22.80;15.70;;;;;;;;;;773013;180;823748;-65
2021/11/01 06:28:44;;;;;;;25.43;17.73;;;;;;;;;;769439;181;918163;-66
2021/11/01 06:31:14;;;;;;;26.13;16.93;;;;;;;;;;766900;180;919792;-65
2021/11/01 06:43:59;;;;;;;38.10;21.90;;;;;;;;;;770224;181;1036727;-65
2021/11/01 06:51:40;;;;;;;37.47;23.90;;;;;;;;;;771599;180;916942;-64
2021/11/01 06:54:26;;;;;;;37.50;24.07;;;;;;;;;;764002;180;920027;-65
2021/11/01 06:56:47;;;;;;;39.90;24.47;;;;;;;;;;770717;180;908694;-65
2021/11/01 07:17:13;;;;;;;34.83;21.52;;;;;;;;;;767224;179;918155;-65
2021/11/01 07:25:45;;;;;;;24.07;16.07;;;;;;;;;;768730;179;924420;-66
2021/11/01 07:30:47;;;;;;;24.97;18.00;;;;;;;;;;774155;179;919276;-66
2021/11/01 08:21:05;;;;;;;15.73;11.73;;;;;;;;;;773560;179;918887;-68
2021/11/01 08:23:36;;;;;;;18.37;10.98;;;;;;;;;;775545;180;918808;-69
2021/11/01 08:26:07;;;;;;;14.40;10.70;;;;;;;;;;769336;179;918903;-70
2021/11/01 08:28:25;;;;;;;15.83;10.67;;;;;;;;;;764577;182;919833;-70
2021/11/01 08:38:35;;;;;;;14.60;10.43;;;;;;;;;;772412;180;918823;-70
2021/11/01 08:46:17;;;;;;;15.90;9.80;;;;;;;;;;779062;180;918704;-71
2021/11/01 08:48:40;;;;;;;12.93;10.00;;;;;;;;;;774783;180;918370;-70
2021/11/01 09:06:38;;;;;;;15.60;9.73;;;;;;;;;;769028;180;919069;-70
2021/11/01 09:18:55;;;;;;;18.70;8.90;;;;;;;;;;768884;180;919011;-71
2021/11/01 09:21:33;;;;;;;14.15;10.15;;;;;;;;;;763846;180;919516;-70
2021/11/01 09:23:50;;;;;;;17.20;9.93;;;;;;;;;;778412;180;918378;-70
2021/11/01 09:26:14;;;;;;;11.60;9.50;;;;;;;;;;766886;179;920508;-71
2021/11/01 09:28:41;;;;;;;12.70;9.10;;;;;;;;;;768605;181;921137;-71
2021/11/01 09:35:47;;;;;;;12.30;10.03;;;;;;;;;;771693;180;913643;-70
2021/11/01 09:36:15;;;;;;;13.63;9.17;;;;;;;;;;769821;180;915092;-71
2021/11/01 09:38:52;;;;;;;12.77;8.40;;;;;;;;;;758972;182;919944;-71
2021/11/01 09:41:08;;;;;;;12.60;9.50;;;;;;;;;;767070;181;912028;-71
2021/11/01 09:43:33;;;;;;;15.55;9.70;;;;;;;;;;774145;180;1115552;-72
2021/11/01 09:46:00;;;;;;;11.97;9.60;;;;;;;;;;771277;180;1010949;-72
2021/11/01 09:48:26;;;;;;;12.57;9.60;;;;;;;;;;765662;181;923124;-73
2021/11/01 09:50:52;;;;;;;11.63;8.97;;;;;;;;;;774637;180;917500;-72
2021/11/01 09:53:21;;;;;;;11.20;8.87;;;;;;;;;;763427;179;919071;-72
2021/11/01 09:55:50;;;;;;;11.67;8.17;;;;;;;;;;766192;179;918357;-73
2021/11/01 10:00:46;;;;;;;11.40;9.10;;;;;;;;;;769098;180;2052151;-72
2021/11/01 10:03:11;;;;;;;13.10;8.97;;;;;;;;;;770756;180;920252;-73
2021/11/01 10:05:37;;;;;;;12.23;9.18;;;;;;;;;;766004;180;918074;-72
2021/11/01 10:08:04;;;;;;;10.57;8.47;;;;;;;;;;768605;180;920760;-70
2021/11/01 10:10:30;;;;;;;12.70;9.10;;;;;;;;;;773729;180;918954;-73
2021/11/01 10:12:55;;;;;;;13.13;8.60;;;;;;;;;;770844;180;919346;-72
2021/11/01 10:17:54;;;;;;;18.20;8.27;;;;;;;;;;775710;180;918899;-72
2021/11/01 10:20:20;;;;;;;13.47;9.20;;;;;;;;;;769100;179;919272;-73
2021/11/01 10:22:47;;;;;;;9.60;8.50;;;;;;;;;;769562;179;918988;-78
2021/11/01 10:25:13;;;;;;;16.67;9.03;;;;;;;;;;765316;180;914675;-71
2021/11/01 10:27:39;;;;;;;10.10;7.30;;;;;;;;;;768187;181;915950;-73
2021/11/01 10:30:05;;;;;;;15.60;8.47;;;;;;;;;;765596;181;916768;-73
2021/11/01 10:32:31;;;;;;;10.40;7.90;;;;;;;;;;768395;181;916558;-73
2021/11/01 10:35:03;;;;;;;10.47;8.00;;;;;;;;;;776628;180;915300;-74
2021/11/01 10:37:29;;;;;;;10.57;8.67;;;;;;;;;;779108;180;1021479;-74
2021/11/01 10:39:55;;;;;;;9.50;7.53;;;;;;;;;;770510;180;920109;-73
2021/11/01 10:42:28;;;;;;;11.37;9.20;;;;;;;;;;771740;178;919428;-73
2021/11/01 10:44:58;;;;;;;11.70;9.52;;;;;;;;;;773147;180;919450;-71
2021/11/01 10:56:22;;;;;;;10.77;8.10;;;;;;;;;;768642;181;918090;-72
2021/11/01 11:15:33;;;;;;;9.00;7.10;;;;;;;;;;772525;180;917033;-74
2021/11/01 11:20:46;;;;;;;10.40;7.50;;;;;;;;;;772807;179;918647;-75
2021/11/01 11:25:39;;;;;;;10.97;7.80;;;;;;;;;;772845;180;919300;-73
2021/11/01 11:28:14;;;;;;;10.77;7.63;;;;;;;;;;763761;180;918619;-73
2021/11/01 11:38:40;;;;;;;11.60;7.30;;;;;;;;;;765010;181;1168993;-73
2021/11/01 11:43:35;;;;;;;10.27;7.97;;;;;;;;;;766089;181;918541;-74
2021/11/01 11:48:36;;;;;;;18.33;8.43;;;;;;;;;;764820;181;918857;-72
2021/11/01 11:51:04;;;;;;;10.60;7.67;;;;;;;;;;769058;181;919048;-74
2021/11/01 11:53:31;;;;;;;12.60;7.50;;;;;;;;;;774358;180;921997;-76
2021/11/01 11:56:00;;;;;;;11.93;7.57;;;;;;;;;;772015;180;932129;-74
2021/11/01 11:58:25;;;;;;;10.53;9.43;;;;;;;;;;770973;180;918959;-73
2021/11/01 12:00:50;;;;;;;10.20;7.70;;;;;;;;;;766078;180;918313;-74
2021/11/01 12:03:17;;;;;;;11.73;8.53;;;;;;;;;;777526;180;820898;-74
2021/11/01 12:05:49;;;;;;;10.17;7.80;;;;;;;;;;771660;180;919261;-74
2021/11/01 12:08:21;;;;;;;11.00;7.82;;;;;;;;;;772650;180;919947;-74
2021/11/01 12:14:33;;;;;;;10.50;8.40;;;;;;;;;;775815;180;937052;-72
2021/11/01 12:18:37;;;;;;;11.27;7.17;;;;;;;;;;766861;179;919357;-72
2021/11/01 12:21:02;;;;;;;11.30;8.07;;;;;;;;;;767270;180;919327;-71
2021/11/01 12:23:36;;;;;;;12.20;9.33;;;;;;;;;;769250;180;920195;-72
2021/11/01 12:26:07;;;;;;;13.00;9.47;;;;;;;;;;769509;180;920251;-72
2021/11/01 12:28:32;;;;;;;11.47;8.17;;;;;;;;;;774934;180;918604;-72
2021/11/01 12:30:59;;;;;;;11.60;8.90;;;;;;;;;;770763;180;920397;-72
2021/11/01 12:33:26;;;;;;;13.43;8.63;;;;;;;;;;769733;180;922051;-71
2021/11/01 12:35:56;;;;;;;11.17;8.00;;;;;;;;;;776269;180;922645;-73
2021/11/01 12:38:22;;;;;;;11.03;8.33;;;;;;;;;;767969;180;947778;-72
2021/11/01 12:40:52;;;;;;;15.60;9.17;;;;;;;;;;773684;180;922694;-71
2021/11/01 12:44:21;;;;;;;11.60;9.40;;;;;;;;;;770197;180;918319;-72
2021/11/01 12:46:19;;;;;;;11.40;9.80;;;;;;;;;;761974;181;920378;-71
2021/11/01 12:48:47;;;;;;;12.57;8.57;;;;;;;;;;776870;179;916105;-71
2021/11/01 12:58:48;;;;;;;17.30;8.90;;;;;;;;;;767855;180;1140119;-71
2021/11/01 13:01:16;;;;;;;11.70;9.20;;;;;;;;;;769950;180;918477;-70
2021/11/01 13:03:40;;;;;;;12.53;10.20;;;;;;;;;;776523;180;907579;-71
2021/11/01 13:06:09;;;;;;;12.40;9.70;;;;;;;;;;769971;178;916308;-70
2021/11/01 13:08:36;;;;;;;14.03;8.70;;;;;;;;;;769754;180;945471;-71
2021/11/01 13:11:04;;;;;;;15.47;10.53;;;;;;;;;;777218;180;911699;-70
2021/11/01 13:13:43;;;;;;;15.33;9.37;;;;;;;;;;771433;177;954251;-72
2021/11/01 13:18:23;;;;;;;14.00;9.30;;;;;;;;;;771296;179;915327;-70
2021/11/01 13:20:53;;;;;;;10.97;8.70;;;;;;;;;;776847;180;911926;-70
2021/11/01 13:23:15;;;;;;;11.97;9.43;;;;;;;;;;766515;179;918674;-71
2021/11/01 13:25:54;;;;;;;11.97;9.10;;;;;;;;;;769109;180;918757;-70
2021/11/01 13:28:51;;;;;;;17.00;8.83;;;;;;;;;;768919;181;917018;-69
2021/11/01 13:38:31;;;;;;;11.80;9.03;;;;;;;;;;767899;180;905855;-71
2021/11/01 13:40:56;;;;;;;13.47;9.37;;;;;;;;;;762230;181;919845;-71
2021/11/01 13:43:24;;;;;;;10.77;9.17;;;;;;;;;;775562;181;918261;-70
2021/11/01 13:45:50;;;;;;;12.63;9.73;;;;;;;;;;772258;180;918533;-70
2021/11/01 13:48:16;;;;;;;13.50;9.30;;;;;;;;;;766954;180;918704;-70
2021/11/01 13:50:42;;;;;;;13.03;9.60;;;;;;;;;;768371;181;919382;-70
2021/11/01 13:53:10;;;;;;;14.93;9.40;;;;;;;;;;767519;180;919556;-70
2021/11/01 13:58:17;;;;;;;11.63;9.33;;;;;;;;;;768272;180;918340;-69
2021/11/01 14:03:16;;;;;;;11.90;9.77;;;;;;;;;;766678;181;918544;-70
2021/11/01 14:13:19;;;;;;;15.07;9.65;;;;;;;;;;775797;180;918730;-70
2021/11/01 14:16:08;;;;;;;14.50;9.90;;;;;;;;;;771403;179;919400;-71
2021/11/01 14:18:41;;;;;;;14.23;10.48;;;;;;;;;;765120;179;921106;-68
2021/11/01 14:31:59;;;;;;;13.30;9.80;;;;;;;;;;767544;183;612671;-69
2021/11/01 14:54:47;;;;;;;15.20;11.10;;;;;;;;;;769531;179;919490;-69
2021/11/01 14:59:56;;;;;;;14.23;10.30;;;;;;;;;;771889;180;918183;-69
2021/11/01 15:12:59;;;;;;;15.03;9.93;;;;;;;;;;765922;179;918883;-69
2021/11/01 15:15:05;;;;;;;14.17;10.57;;;;;;;;;;760107;181;919095;-70
2021/11/01 15:17:32;;;;;;;16.98;12.20;;;;;;;;;;768752;181;918959;-69
2021/11/01 15:25:38;;;;;;;15.93;11.60;;;;;;;;;;766090;180;918780;-69
2021/11/01 15:27:59;;;;;;;23.47;13.27;;;;;;;;;;770055;179;918719;-69
2021/11/01 15:30:59;;;;;;;18.27;12.47;;;;;;;;;;771448;179;917945;-70
2021/11/01 15:35:38;;;;;;;15.63;12.03;;;;;;;;;;768701;180;916468;-69
2021/11/01 15:40:47;;;;;;;12.80;10.87;;;;;;;;;;770691;180;917550;-69
2021/11/01 16:18:41;;;;;;;16.23;12.90;;;;;;;;;;745530;180;920481;-68
2021/11/01 16:21:04;;;;;;;19.20;13.57;;;;;;;;;;768513;180;917943;-69
2021/11/01 16:23:34;;;;;;;17.50;13.83;;;;;;;;;;764317;181;930129;-68
2021/11/01 16:25:56;;;;;;;20.30;13.02;;;;;;;;;;767573;180;913048;-68
2021/11/01 16:28:21;;;;;;;15.17;11.77;;;;;;;;;;772696;180;910705;-68
2021/11/01 16:31:01;;;;;;;15.10;12.23;;;;;;;;;;770613;180;915743;-70
2021/11/01 16:33:13;;;;;;;26.92;16.27;;;;;;;;;;765995;180;919257;-68
2021/11/01 16:35:43;;;;;;;14.67;11.73;;;;;;;;;;772663;180;918635;-69
2021/11/01 16:38:11;;;;;;;15.73;12.30;;;;;;;;;;766170;180;918692;-69
2021/11/01 16:40:32;;;;;;;18.17;12.80;;;;;;;;;;767565;179;919297;-69
2021/11/01 16:42:58;;;;;;;14.77;11.30;;;;;;;;;;770441;180;918074;-69
2021/11/01 16:45:33;;;;;;;15.90;11.87;;;;;;;;;;774757;180;918766;-68
2021/11/01 16:47:52;;;;;;;18.03;12.20;;;;;;;;;;773035;179;918419;-68
2021/11/01 16:50:18;;;;;;;15.65;12.30;;;;;;;;;;766258;180;919621;-68
2021/11/01 16:52:44;;;;;;;18.47;13.70;;;;;;;;;;772540;180;917438;-69
2021/11/01 16:55:34;;;;;;;16.87;13.10;;;;;;;;;;771065;180;919543;-70
2021/11/01 16:57:53;;;;;;;19.87;13.73;;;;;;;;;;767138;180;918141;-69
2021/11/01 17:00:24;;;;;;;16.03;12.00;;;;;;;;;;761417;180;1179087;-69
2021/11/01 17:02:59;;;;;;;16.00;13.27;;;;;;;;;;770671;181;918154;-69
2021/11/01 17:05:29;;;;;;;23.70;14.73;;;;;;;;;;772701;179;918303;-69
2021/11/01 17:08:01;;;;;;;17.30;12.90;;;;;;;;;;764975;180;918174;-68
2021/11/01 17:10:36;;;;;;;20.50;15.90;;;;;;;;;;763070;180;1229131;-69
2021/11/01 17:22:57;;;;;;;20.00;14.00;;;;;;;;;;767801;180;922457;-69
2021/11/01 17:25:22;;;;;;;22.00;13.52;;;;;;;;;;768901;180;917277;-68
2021/11/01 17:27:57;;;;;;;21.83;14.50;;;;;;;;;;772490;180;918741;-69
2021/11/01 17:30:33;;;;;;;19.93;13.40;;;;;;;;;;765377;180;918629;-68
2021/11/01 17:35:22;;;;;;;16.83;13.10;;;;;;;;;;764438;180;919396;-68
2021/11/01 17:37:51;;;;;;;20.17;13.87;;;;;;;;;;769864;180;919123;-68
2021/11/01 18:41:10;;;;;;;21.20;15.03;;;;;;;;;;774072;180;918866;-68
2021/11/01 18:46:27;;;;;;;20.80;14.37;;;;;;;;;;764645;180;918541;-68
2021/11/01 18:51:14;;;;;;;27.27;18.10;;;;;;;;;;768885;179;920291;-68
2021/11/01 18:53:39;;;;;;;28.63;19.43;;;;;;;;;;767572;180;935772;-68
2021/11/01 18:56:05;;;;;;;26.90;19.00;;;;;;;;;;765654;183;917957;-67
2021/11/01 18:58:31;;;;;;;27.50;18.40;;;;;;;;;;771584;180;923065;-68
2021/11/01 19:00:57;;;;;;;23.80;16.03;;;;;;;;;;772607;180;625010;-68
2021/11/01 19:03:25;;;;;;;22.07;16.37;;;;;;;;;;772105;179;625401;-68
2021/11/01 19:09:17;;;;;;;23.73;16.80;;;;;;;;;;766587;180;915467;-68
2021/11/01 19:15:08;;;;;;;28.10;18.90;;;;;;;;;;760766;179;915632;-69
2021/11/01 20:05:23;;;;;;;30.70;20.03;;;;;;;;;;769245;180;920165;-68
2021/11/01 20:13:12;;;;;;;20.93;16.57;;;;;;;;;;767821;180;1139316;-67
2021/11/01 20:16:26;;;;;;;21.57;16.63;;;;;;;;;;777918;179;914186;-67
2021/11/01 21:26:39;;;;;;;25.97;16.77;;;;;;;;;;774002;181;919961;-67
2021/11/01 21:29:05;;;;;;;20.47;13.87;;;;;;;;;;769979;179;922364;-68
2021/11/01 21:31:31;;;;;;;24.57;16.20;;;;;;;;;;766995;179;919167;-68
2021/11/01 21:34:00;;;;;;;19.67;14.97;;;;;;;;;;776612;180;915986;-69
2021/11/01 21:36:24;;;;;;;24.07;16.73;;;;;;;;;;769012;180;915609;-68
2021/11/01 21:38:50;;;;;;;22.33;16.07;;;;;;;;;;768282;180;1015813;-68
2021/11/01 21:41:15;;;;;;;22.77;16.77;;;;;;;;;;777699;180;915383;-68
2021/11/01 21:43:41;;;;;;;26.00;17.37;;;;;;;;;;769239;180;916977;-68
2021/11/01 21:46:07;;;;;;;23.47;17.10;;;;;;;;;;762254;180;919374;-68
2021/11/01 21:48:33;;;;;;;27.20;17.30;;;;;;;;;;763275;180;918642;-67
2021/11/01 21:50:59;;;;;;;21.70;15.10;;;;;;;;;;776207;181;918811;-68
2021/11/01 21:53:26;;;;;;;20.77;16.20;;;;;;;;;;762593;181;919081;-68
2021/11/01 21:55:51;;;;;;;23.97;16.50;;;;;;;;;;770393;180;918844;-68
2021/11/01 21:58:50;;;;;;;26.37;17.03;;;;;;;;;;769488;182;918308;-67
2021/11/01 22:01:10;;;;;;;19.10;14.60;;;;;;;;;;776629;180;918141;-67
2021/11/01 22:19:10;;;;;;;24.30;16.80;;;;;;;;;;762786;179;919835;-67
2021/11/01 22:21:29;;;;;;;22.87;15.27;;;;;;;;;;764479;180;917648;-68
2021/11/01 22:24:01;;;;;;;19.95;15.32;;;;;;;;;;769337;181;918836;-69
2021/11/01 22:34:33;;;;;;;21.33;15.90;;;;;;;;;;773177;180;917620;-67
2021/11/01 22:39:09;;;;;;;21.40;16.60;;;;;;;;;;773558;180;919642;-68
2021/11/01 22:41:39;;;;;;;24.23;16.83;;;;;;;;;;773479;179;920673;-68
2021/11/01 22:44:25;;;;;;;23.50;16.07;;;;;;;;;;769502;179;920342;-68
2021/11/01 22:56:44;;;;;;;23.47;16.77;;;;;;;;;;772666;180;918605;-67
2021/11/01 22:59:02;;;;;;;23.77;18.10;;;;;;;;;;769870;180;918927;-68
2021/11/01 23:01:35;;;;;;;23.23;17.60;;;;;;;;;;772056;180;918045;-68
2021/11/01 23:04:02;;;;;;;20.00;15.90;;;;;;;;;;763597;182;1154146;-68
2021/11/01 23:06:54;;;;;;;25.80;16.90;;;;;;;;;;764103;180;912985;-70
2021/11/01 23:32:05;;;;;;;20.90;14.97;;;;;;;;;;776305;179;915398;-68
2021/11/01 23:34:30;;;;;;;24.13;13.97;;;;;;;;;;769427;180;917564;-63
2021/11/01 23:36:56;;;;;;;20.27;14.75;;;;;;;;;;765299;180;920103;-66
2021/11/01 23:39:23;;;;;;;22.98;16.33;;;;;;;;;;770475;181;918996;-65
2021/11/01 23:41:49;;;;;;;19.97;15.60;;;;;;;;;;773025;181;816224;-65
2021/11/01 23:44:14;;;;;;;24.53;16.70;;;;;;;;;;762801;181;914387;-66
2021/11/01 23:46:40;;;;;;;19.37;14.70;;;;;;;;;;769748;180;918613;-66
2021/11/01 23:49:06;;;;;;;19.40;15.37;;;;;;;;;;774373;178;912162;-66
2021/11/01 23:51:35;;;;;;;18.17;14.30;;;;;;;;;;766384;179;942418;-65
2021/11/01 23:54:12;;;;;;;19.67;14.67;;;;;;;;;;768552;180;919219;-66
2021/11/01 23:56:25;;;;;;;23.33;16.37;;;;;;;;;;774436;179;928486;-66
2021/11/01 23:58:51;;;;;;;20.07;15.17;;;;;;;;;;768498;180;921031;-67
